createdAt,value
2023-03-17T00:00:20.055Z,-1.80
2023-03-17T00:02:49.597Z,-1.80
2023-03-17T00:05:19.542Z,-1.70
2023-03-17T00:07:47.570Z,-1.80
2023-03-17T00:10:17.881Z,-1.70
2023-03-17T00:12:45.952Z,-1.60
2023-03-17T00:15:15.047Z,-1.70
2023-03-17T00:17:42.539Z,-1.60
2023-03-17T00:20:21.796Z,-1.60
2023-03-17T00:22:49.223Z,-1.50
2023-03-17T00:25:23.337Z,-1.50
2023-03-17T00:27:51.347Z,-1.50
2023-03-17T00:30:18.734Z,-1.50
2023-03-17T00:32:46.724Z,-1.50
2023-03-17T00:35:19.148Z,-1.50
2023-03-17T00:37:46.984Z,-1.50
2023-03-17T00:40:19.178Z,-1.50
2023-03-17T00:42:46.393Z,-1.40
2023-03-17T00:45:14.044Z,-1.50
2023-03-17T00:47:41.066Z,-1.40
2023-03-17T00:50:19.312Z,-1.40
2023-03-17T00:52:46.416Z,-1.40
2023-03-17T00:55:14.442Z,-1.40
2023-03-17T00:57:42.498Z,-1.40
2023-03-17T01:00:28.212Z,-1.40
2023-03-17T01:02:57.331Z,-1.40
2023-03-17T01:05:25.842Z,-1.40
2023-03-17T01:07:59.016Z,-1.30
2023-03-17T01:10:28.563Z,-1.30
2023-03-17T01:12:58.168Z,-1.30
2023-03-17T01:15:29.042Z,-1.30
2023-03-17T01:17:57.315Z,-1.20
2023-03-17T01:20:42.948Z,-1.20
2023-03-17T01:23:12.337Z,-1.10
2023-03-17T01:25:41.597Z,-1.10
2023-03-17T01:28:14.327Z,-1.00
2023-03-17T01:30:41.727Z,-1.00
2023-03-17T01:33:10.884Z,-1.00
2023-03-17T01:35:38.650Z,-1.00
2023-03-17T01:38:06.180Z,-0.90
2023-03-17T01:40:36.280Z,-0.90
2023-03-17T01:43:09.339Z,-0.90
2023-03-17T01:46:16.523Z,-0.90
2023-03-17T01:48:58.737Z,-0.90
2023-03-17T01:51:33.399Z,-0.90
2023-03-17T01:54:03.699Z,-0.90
2023-03-17T01:56:31.569Z,-0.90
2023-03-17T01:59:01.741Z,-0.80
2023-03-17T02:01:33.858Z,-0.80
2023-03-17T02:04:01.307Z,-0.80
2023-03-17T02:06:28.480Z,-0.80
2023-03-17T02:08:55.692Z,-0.70
2023-03-17T02:11:22.765Z,-0.70
2023-03-17T02:13:50.067Z,-0.70
2023-03-17T02:16:17.818Z,-0.70
2023-03-17T02:18:45.127Z,-0.60
2023-03-17T02:21:31.435Z,-0.60
2023-03-17T02:24:01.728Z,-0.50
2023-03-17T02:26:32.072Z,-0.50
2023-03-17T02:28:59.296Z,-0.50
2023-03-17T02:31:27.602Z,-0.50
2023-03-17T02:33:54.819Z,-0.40
2023-03-17T02:36:22.278Z,-0.40
2023-03-17T02:38:50.093Z,-0.40
2023-03-17T02:41:17.587Z,-0.30
2023-03-17T02:43:44.556Z,-0.40
2023-03-17T02:46:11.493Z,-0.40
2023-03-17T02:48:39.686Z,-0.30
2023-03-17T02:51:06.838Z,-0.30
2023-03-17T02:53:33.792Z,-0.30
2023-03-17T02:56:00.753Z,-0.30
2023-03-17T02:58:27.905Z,-0.30
2023-03-17T03:00:54.822Z,-0.30
2023-03-17T03:03:21.885Z,-0.20
2023-03-17T03:05:48.835Z,-0.20
2023-03-17T03:08:16.552Z,-0.30
2023-03-17T03:10:43.658Z,-0.20
2023-03-17T03:13:11.649Z,-0.20
2023-03-17T03:15:42.030Z,-0.20
2023-03-17T03:18:09.052Z,-0.20
2023-03-17T03:20:36.642Z,-0.20
2023-03-17T03:23:04.064Z,-0.20
2023-03-17T03:25:31.486Z,-0.10
2023-03-17T03:27:58.410Z,-0.10
2023-03-17T03:30:25.294Z,-0.10
2023-03-17T03:32:52.274Z,-0.10
2023-03-17T03:35:19.249Z,-0.10
2023-03-17T03:37:46.257Z,0.00
2023-03-17T03:40:13.527Z,0.00
2023-03-17T03:42:40.992Z,0.00
2023-03-17T03:45:08.524Z,0.00
2023-03-17T03:47:35.862Z,0.00
2023-03-17T03:50:02.916Z,0.00
2023-03-17T03:52:29.802Z,0.00
2023-03-17T03:54:56.741Z,0.00
2023-03-17T03:57:23.618Z,0.00
2023-03-17T03:59:50.516Z,0.00
2023-03-17T04:02:17.506Z,0.00
2023-03-17T04:04:44.902Z,0.10
2023-03-17T04:07:12.160Z,0.00
2023-03-17T04:09:39.424Z,0.10
2023-03-17T04:12:07.080Z,0.10
2023-03-17T04:14:34.024Z,0.10
2023-03-17T04:17:01.737Z,0.10
2023-03-17T04:19:28.936Z,0.20
2023-03-17T04:21:56.289Z,0.20
2023-03-17T04:24:23.229Z,0.20
2023-03-17T04:26:50.150Z,0.20
2023-03-17T04:29:17.071Z,0.20
2023-03-17T04:31:44.101Z,0.20
2023-03-17T04:34:15.849Z,0.20
2023-03-17T04:36:44.174Z,0.20
2023-03-17T04:39:11.780Z,0.20
2023-03-17T04:41:40.077Z,0.20
2023-03-17T04:44:08.020Z,0.20
2023-03-17T04:46:36.153Z,0.20
2023-03-17T04:49:03.046Z,0.20
2023-03-17T04:51:30.564Z,0.20
2023-03-17T04:53:57.495Z,0.20
2023-03-17T04:56:24.599Z,0.20
2023-03-17T04:58:51.491Z,0.20
2023-03-17T05:01:18.534Z,0.20
2023-03-17T05:03:45.566Z,0.20
2023-03-17T05:06:12.551Z,0.20
2023-03-17T05:08:39.709Z,0.20
2023-03-17T05:11:06.684Z,0.20
2023-03-17T05:13:33.569Z,0.20
2023-03-17T05:16:01.581Z,0.20
2023-03-17T05:18:28.698Z,0.20
2023-03-17T05:20:55.703Z,0.20
2023-03-17T05:23:23.110Z,0.20
2023-03-17T05:25:50.337Z,0.30
2023-03-17T05:28:18.417Z,0.30
2023-03-17T05:30:46.094Z,0.30
2023-03-17T05:33:13.097Z,0.30
2023-03-17T05:35:40.853Z,0.30
2023-03-17T05:38:08.803Z,0.40
2023-03-17T05:40:37.185Z,0.40
2023-03-17T05:43:04.647Z,0.40
2023-03-17T05:45:31.778Z,0.50
2023-03-17T05:47:58.979Z,0.50
2023-03-17T05:50:27.156Z,0.50
2023-03-17T05:52:54.406Z,0.50
2023-03-17T05:55:22.597Z,0.60
2023-03-17T05:57:49.660Z,0.60
2023-03-17T06:00:17.026Z,0.70
2023-03-17T06:02:44.043Z,0.70
2023-03-17T06:05:11.666Z,0.80
2023-03-17T06:07:51.707Z,0.80
2023-03-17T06:10:22.054Z,0.90
2023-03-17T06:12:49.030Z,0.80
2023-03-17T06:15:17.154Z,0.90
2023-03-17T06:17:44.594Z,1.00
2023-03-17T06:20:12.626Z,1.00
2023-03-17T06:22:51.652Z,1.00
2023-03-17T06:25:27.190Z,1.00
2023-03-17T06:27:56.197Z,1.00
2023-03-17T06:30:23.228Z,1.10
2023-03-17T06:32:50.412Z,1.20
2023-03-17T06:35:18.189Z,1.30
2023-03-17T06:37:45.275Z,1.40
2023-03-17T06:40:13.022Z,1.50
2023-03-17T06:42:39.938Z,1.60
2023-03-17T06:45:09.399Z,1.60
2023-03-17T06:47:37.443Z,1.80
2023-03-17T06:50:05.038Z,1.90
2023-03-17T06:52:32.336Z,1.80
2023-03-17T06:54:59.229Z,1.90
2023-03-17T06:57:26.362Z,1.80
2023-03-17T06:59:53.408Z,1.80
2023-03-17T07:02:20.339Z,1.90
2023-03-17T07:04:47.765Z,1.90
2023-03-17T07:07:14.941Z,1.90
2023-03-17T07:09:42.054Z,2.10
2023-03-17T07:12:10.432Z,2.20
2023-03-17T07:14:37.618Z,2.20
2023-03-17T07:17:06.230Z,2.30
2023-03-17T07:19:33.679Z,2.40
2023-03-17T07:22:01.133Z,2.30
2023-03-17T07:24:28.262Z,2.40
2023-03-17T07:26:55.448Z,2.30
2023-03-17T07:29:22.876Z,2.40
2023-03-17T07:31:50.171Z,2.30
2023-03-17T07:34:17.885Z,2.50
2023-03-17T07:36:44.942Z,2.50
2023-03-17T07:39:12.842Z,2.70
2023-03-17T07:41:40.261Z,2.70
2023-03-17T07:44:07.336Z,2.80
2023-03-17T07:46:34.262Z,2.80
2023-03-17T07:49:01.929Z,2.70
2023-03-17T07:51:28.972Z,2.60
2023-03-17T07:54:03.630Z,2.60
2023-03-17T07:56:32.108Z,2.60
2023-03-17T07:59:00.060Z,2.60
2023-03-17T08:01:27.968Z,2.80
2023-03-17T08:03:56.641Z,3.00
2023-03-17T08:06:27.447Z,3.00
2023-03-17T08:08:55.206Z,3.00
2023-03-17T08:11:23.512Z,3.10
2023-03-17T08:13:51.119Z,2.90
2023-03-17T08:16:18.106Z,3.00
2023-03-17T08:18:45.238Z,3.10
2023-03-17T08:21:14.093Z,3.30
2023-03-17T08:23:43.382Z,3.50
2023-03-17T08:26:10.400Z,3.60
2023-03-17T08:28:37.635Z,3.50
2023-03-17T08:31:13.768Z,3.60
2023-03-17T08:33:42.582Z,3.60
2023-03-17T08:36:11.468Z,3.70
2023-03-17T08:38:40.427Z,3.90
2023-03-17T08:41:10.435Z,4.00
2023-03-17T08:43:38.368Z,4.20
2023-03-17T08:46:09.930Z,4.20
2023-03-17T08:48:37.522Z,4.30
2023-03-17T08:51:05.582Z,4.50
2023-03-17T08:53:35.186Z,4.40
2023-03-17T08:56:04.758Z,4.50
2023-03-17T08:58:32.032Z,4.70
2023-03-17T09:01:00.636Z,4.80
2023-03-17T09:03:29.113Z,5.10
2023-03-17T09:05:57.135Z,5.00
2023-03-17T09:12:07.208Z,5.30
2023-03-17T09:14:42.944Z,5.20
2023-03-17T09:17:11.337Z,5.30
2023-03-17T09:19:38.920Z,5.40
2023-03-17T09:22:06.048Z,5.50
2023-03-17T09:24:33.344Z,5.60
2023-03-17T09:27:01.461Z,5.50
2023-03-17T09:29:28.924Z,5.30
2023-03-17T09:31:57.129Z,5.40
2023-03-17T09:34:25.288Z,5.50
2023-03-17T09:36:54.378Z,5.30
2023-03-17T09:39:24.548Z,5.50
2023-03-17T09:41:58.967Z,5.50
2023-03-17T09:44:32.682Z,5.50
2023-03-17T09:47:02.601Z,5.60
2023-03-17T09:49:45.667Z,5.60
2023-03-17T09:52:15.841Z,5.50
2023-03-17T09:54:44.014Z,5.40
2023-03-17T09:57:20.034Z,5.60
2023-03-17T09:59:51.166Z,5.90
2023-03-17T10:02:30.366Z,6.00
2023-03-17T10:04:58.236Z,6.10
2023-03-17T10:07:49.795Z,6.10
2023-03-17T10:10:37.058Z,6.20
2023-03-17T10:13:22.183Z,6.20
2023-03-17T10:16:12.339Z,6.40
2023-03-17T10:18:49.118Z,6.40
2023-03-17T10:21:24.417Z,6.40
2023-03-17T10:23:52.386Z,6.60
2023-03-17T10:26:25.327Z,6.80
2023-03-17T10:28:53.724Z,6.70
2023-03-17T10:31:28.816Z,6.70
2023-03-17T10:33:59.123Z,6.90
2023-03-17T10:37:01.365Z,6.90
2023-03-17T10:39:32.457Z,7.10
2023-03-17T10:42:10.778Z,7.20
2023-03-17T10:44:40.676Z,7.00
2023-03-17T10:47:39.833Z,7.20
2023-03-17T10:50:23.736Z,7.20
2023-03-17T10:53:09.481Z,7.40
2023-03-17T10:55:39.371Z,7.30
2023-03-17T10:58:15.384Z,7.30
2023-03-17T11:01:00.133Z,7.50
2023-03-17T11:03:31.449Z,7.60
2023-03-17T11:06:10.262Z,7.40
2023-03-17T11:12:34.931Z,7.50
2023-03-17T11:18:50.087Z,7.40
2023-03-17T11:21:30.182Z,7.60
2023-03-17T11:24:00.187Z,7.60
2023-03-17T11:26:58.244Z,7.60
2023-03-17T11:29:53.313Z,7.60
2023-03-17T11:32:27.616Z,7.90
2023-03-17T11:35:42.141Z,8.00
2023-03-17T11:38:30.197Z,8.30
2023-03-17T11:41:05.143Z,8.30
2023-03-17T11:43:47.658Z,8.40
2023-03-17T11:46:34.424Z,8.40
2023-03-17T11:49:20.595Z,8.40
2023-03-17T11:51:59.932Z,8.60
2023-03-17T11:54:38.726Z,8.80
2023-03-17T11:57:15.487Z,8.90
2023-03-17T11:59:47.458Z,9.20
2023-03-17T12:02:28.778Z,9.10
2023-03-17T12:05:02.611Z,8.90
2023-03-17T12:07:44.922Z,9.00
2023-03-17T12:10:37.979Z,8.80
2023-03-17T12:13:14.215Z,8.80
2023-03-17T12:16:10.137Z,8.90
2023-03-17T12:19:01.522Z,8.70
2023-03-17T12:21:47.650Z,8.80
2023-03-17T12:24:21.045Z,8.80
2023-03-17T12:26:55.953Z,8.90
2023-03-17T12:29:43.310Z,9.10
2023-03-17T12:32:24.419Z,8.90
2023-03-17T12:34:57.613Z,9.00
2023-03-17T12:37:27.756Z,8.90
2023-03-17T12:40:00.865Z,8.80
2023-03-17T12:42:52.385Z,8.70
2023-03-17T12:45:37.529Z,8.70
2023-03-17T12:48:37.231Z,8.70
2023-03-17T12:51:23.076Z,8.60
2023-03-17T12:53:51.964Z,8.70
2023-03-17T12:56:24.715Z,8.70
2023-03-17T12:58:54.757Z,8.60
2023-03-17T13:01:37.419Z,8.70
2023-03-17T13:04:06.686Z,8.80
2023-03-17T13:06:46.334Z,9.00
2023-03-17T13:09:31.843Z,9.00
2023-03-17T13:12:00.590Z,9.20
2023-03-17T13:14:27.482Z,9.20
2023-03-17T13:17:27.247Z,9.20
2023-03-17T13:19:57.255Z,9.10
2023-03-17T13:22:34.513Z,8.90
2023-03-17T13:25:23.621Z,8.90
2023-03-17T13:27:50.561Z,9.10
2023-03-17T13:30:24.432Z,8.90
2023-03-17T13:33:20.025Z,9.20
2023-03-17T13:36:05.567Z,9.40
2023-03-17T13:38:35.549Z,9.50
2023-03-17T13:41:35.878Z,9.50
2023-03-17T13:44:09.007Z,9.50
2023-03-17T13:46:39.896Z,9.20
2023-03-17T13:49:19.507Z,9.20
2023-03-17T13:52:04.471Z,9.20
2023-03-17T13:54:40.784Z,9.00
2023-03-17T13:57:28.599Z,8.90
2023-03-17T14:00:16.660Z,8.90
2023-03-17T14:02:45.339Z,8.90
2023-03-17T14:05:27.294Z,8.80
2023-03-17T14:08:04.030Z,9.00
2023-03-17T14:10:34.142Z,9.10
2023-03-17T14:13:21.833Z,9.20
2023-03-17T14:16:05.633Z,9.00
2023-03-17T14:18:43.125Z,9.00
2023-03-17T14:21:24.734Z,9.00
2023-03-17T14:23:56.044Z,9.00
2023-03-17T14:26:28.887Z,8.90
2023-03-17T14:28:59.048Z,8.90
2023-03-17T14:31:28.780Z,8.90
2023-03-17T14:33:58.716Z,9.00
2023-03-17T14:36:27.735Z,8.90
2023-03-17T14:38:56.801Z,8.80
2023-03-17T14:41:28.427Z,8.70
2023-03-17T14:44:00.418Z,8.70
2023-03-17T14:46:35.157Z,8.60
2023-03-17T14:49:18.975Z,8.50
2023-03-17T14:51:49.957Z,8.50
2023-03-17T14:54:22.627Z,8.40
2023-03-17T14:57:02.045Z,8.40
2023-03-17T14:59:33.463Z,8.50
2023-03-17T15:02:03.949Z,8.40
2023-03-17T15:04:34.267Z,8.40
2023-03-17T15:07:04.653Z,8.40
2023-03-17T15:09:36.578Z,8.40
2023-03-17T15:12:07.325Z,8.40
2023-03-17T15:14:38.940Z,8.40
2023-03-17T15:17:16.139Z,8.30
2023-03-17T15:19:51.472Z,8.30
2023-03-17T15:22:21.392Z,8.30
2023-03-17T15:24:59.511Z,8.30
2023-03-17T15:27:27.369Z,8.30
2023-03-17T15:29:54.420Z,8.30
2023-03-17T15:32:26.415Z,8.20
2023-03-17T15:34:57.168Z,8.20
2023-03-17T15:37:28.580Z,8.20
2023-03-17T15:39:56.709Z,8.10
2023-03-17T15:42:27.987Z,8.10
2023-03-17T15:44:55.614Z,8.10
2023-03-17T15:47:25.746Z,8.00
2023-03-17T15:49:55.926Z,7.90
2023-03-17T15:52:25.892Z,7.90
2023-03-17T15:54:55.301Z,7.80
2023-03-17T15:57:22.831Z,7.80
2023-03-17T15:59:50.176Z,7.80
2023-03-17T16:02:28.108Z,7.70
2023-03-17T16:04:55.469Z,7.70
2023-03-17T16:07:22.698Z,7.60
2023-03-17T16:09:49.838Z,7.60
2023-03-17T16:12:16.849Z,7.60
2023-03-17T16:14:43.942Z,7.60
2023-03-17T16:17:26.954Z,7.50
2023-03-17T16:19:54.378Z,7.50
2023-03-17T16:22:43.134Z,7.50
2023-03-17T16:25:18.953Z,7.50
2023-03-17T16:27:46.737Z,7.50
2023-03-17T16:30:23.067Z,7.40
2023-03-17T16:32:50.522Z,7.40
2023-03-17T16:35:20.377Z,7.30
2023-03-17T16:37:48.529Z,7.20
2023-03-17T16:40:25.970Z,7.10
2023-03-17T16:42:53.587Z,7.10
2023-03-17T16:45:30.026Z,7.10
2023-03-17T16:47:57.645Z,7.10
2023-03-17T16:50:27.806Z,7.10
2023-03-17T16:52:54.985Z,7.00
2023-03-17T16:55:23.128Z,6.90
2023-03-17T16:57:52.304Z,7.00
2023-03-17T17:00:30.659Z,7.00
2023-03-17T17:02:58.771Z,7.00
2023-03-17T17:05:29.517Z,6.90
2023-03-17T17:07:57.962Z,6.90
2023-03-17T17:10:27.257Z,6.90
2023-03-17T17:12:54.412Z,6.80
2023-03-17T17:15:22.853Z,6.80
2023-03-17T17:17:56.794Z,6.60
2023-03-17T17:20:39.420Z,6.50
2023-03-17T17:23:11.079Z,6.60
2023-03-17T17:25:38.125Z,6.50
2023-03-17T17:28:05.668Z,6.50
2023-03-17T17:30:33.579Z,6.40
2023-03-17T17:33:01.774Z,6.40
2023-03-17T17:35:32.589Z,6.40
2023-03-17T17:38:01.095Z,6.40
2023-03-17T17:40:29.400Z,6.40
2023-03-17T17:42:57.849Z,6.30
2023-03-17T17:45:25.294Z,6.30
2023-03-17T17:47:52.242Z,6.40
2023-03-17T17:50:30.101Z,6.40
2023-03-17T17:53:02.837Z,6.30
2023-03-17T17:55:29.939Z,6.40
2023-03-17T17:57:56.972Z,6.30
2023-03-17T18:00:25.806Z,6.20
2023-03-17T18:02:52.804Z,6.20
2023-03-17T18:05:19.789Z,6.10
2023-03-17T18:07:46.816Z,6.00
2023-03-17T18:13:55.248Z,6.00
2023-03-17T18:16:22.459Z,6.00
2023-03-17T18:18:49.417Z,6.00
2023-03-17T18:21:16.807Z,6.00
2023-03-17T18:23:47.451Z,5.90
2023-03-17T18:26:17.272Z,5.90
2023-03-17T18:28:44.811Z,5.90
2023-03-17T18:31:34.740Z,5.90
2023-03-17T18:34:36.033Z,5.90
2023-03-17T18:37:03.225Z,5.90
2023-03-17T18:39:30.788Z,5.90
2023-03-17T18:41:57.803Z,5.80
2023-03-17T18:44:25.133Z,5.80
2023-03-17T18:46:52.491Z,5.70
2023-03-17T18:49:19.538Z,5.70
2023-03-17T18:51:46.719Z,5.70
2023-03-17T18:54:13.907Z,5.70
2023-03-17T18:56:41.157Z,5.70
2023-03-17T18:59:08.066Z,5.70
2023-03-17T19:01:35.108Z,5.60
2023-03-17T19:04:04.028Z,5.50
2023-03-17T19:06:31.331Z,5.60
2023-03-17T19:08:58.917Z,5.60
2023-03-17T19:11:26.220Z,5.50
2023-03-17T19:13:53.204Z,5.40
2023-03-17T19:16:20.229Z,5.40
2023-03-17T19:18:47.310Z,5.40
2023-03-17T19:21:14.424Z,5.40
2023-03-17T19:23:41.709Z,5.40
2023-03-17T19:26:08.971Z,5.50
2023-03-17T19:28:36.022Z,5.40
2023-03-17T19:31:03.489Z,5.30
2023-03-17T19:37:11.823Z,5.40
2023-03-17T19:39:38.799Z,5.40
2023-03-17T19:42:06.070Z,5.30
2023-03-17T19:44:33.833Z,5.30
2023-03-17T19:47:05.146Z,5.30
2023-03-17T19:49:32.446Z,5.20
2023-03-17T19:51:59.439Z,5.10
2023-03-17T19:54:26.405Z,5.20
2023-03-17T19:56:53.662Z,5.20
2023-03-17T19:59:20.705Z,5.30
2023-03-17T20:01:49.261Z,5.10
2023-03-17T20:04:21.085Z,5.20
2023-03-17T20:06:48.184Z,5.20
2023-03-17T20:09:15.442Z,5.10
2023-03-17T20:11:42.560Z,5.20
2023-03-17T20:14:09.638Z,5.20
2023-03-17T20:16:37.133Z,5.20
2023-03-17T20:19:04.233Z,5.10
2023-03-17T20:21:31.486Z,5.20
2023-03-17T20:23:58.692Z,5.10
2023-03-17T20:26:25.807Z,5.10
2023-03-17T20:28:53.970Z,5.20
2023-03-17T20:31:21.014Z,5.20
2023-03-17T20:33:48.378Z,5.20
2023-03-17T20:36:15.532Z,5.20
2023-03-17T20:38:43.948Z,5.20
2023-03-17T20:41:17.278Z,5.20
2023-03-17T20:43:45.628Z,5.20
2023-03-17T20:46:16.912Z,5.10
2023-03-17T20:48:44.552Z,5.10
2023-03-17T20:51:16.450Z,5.20
2023-03-17T20:53:44.844Z,5.30
2023-03-17T20:56:23.707Z,5.20
2023-03-17T20:58:53.284Z,5.20
2023-03-17T21:01:21.818Z,5.20
2023-03-17T21:03:49.936Z,5.20
2023-03-17T21:06:18.468Z,5.10
2023-03-17T21:08:46.471Z,5.10
2023-03-17T21:11:21.051Z,5.10
2023-03-17T21:13:47.982Z,5.10
2023-03-17T21:16:26.559Z,5.10
2023-03-17T21:18:54.082Z,5.00
2023-03-17T21:21:22.333Z,5.00
2023-03-17T21:23:49.741Z,5.00
2023-03-17T21:26:16.828Z,5.00
2023-03-17T21:28:44.226Z,4.90
2023-03-17T21:31:12.593Z,4.90
2023-03-17T21:33:39.823Z,4.90
2023-03-17T21:36:07.502Z,4.90
2023-03-17T21:38:34.842Z,4.90
2023-03-17T21:41:21.500Z,4.90
2023-03-17T21:43:48.857Z,4.90
2023-03-17T21:46:15.860Z,4.80
2023-03-17T21:48:44.154Z,4.80
2023-03-17T21:51:11.728Z,4.90
2023-03-17T21:53:39.349Z,4.90
2023-03-17T21:56:06.953Z,4.90
2023-03-17T21:58:34.138Z,5.00
2023-03-17T22:01:01.563Z,5.00
2023-03-17T22:03:28.644Z,5.00
2023-03-17T22:05:56.774Z,5.00
2023-03-17T22:08:23.884Z,5.00
2023-03-17T22:10:51.457Z,5.10
2023-03-17T22:13:18.566Z,5.00
2023-03-17T22:15:45.555Z,5.10
2023-03-17T22:18:12.585Z,5.10
2023-03-17T22:20:39.757Z,5.00
2023-03-17T22:23:06.797Z,5.00
2023-03-17T22:25:33.784Z,5.00
2023-03-17T22:31:47.619Z,4.90
2023-03-17T22:34:14.753Z,4.80
2023-03-17T22:36:41.817Z,4.90
2023-03-17T22:39:10.645Z,4.90
2023-03-17T22:41:38.711Z,4.80
2023-03-17T22:44:08.399Z,4.80
2023-03-17T22:46:37.364Z,4.80
2023-03-17T22:49:06.048Z,4.90
2023-03-17T22:51:33.143Z,4.70
2023-03-17T22:54:00.299Z,4.70
2023-03-17T22:56:27.406Z,4.70
2023-03-17T22:58:55.110Z,4.60
2023-03-17T23:01:25.846Z,4.70
2023-03-17T23:03:54.288Z,4.60
2023-03-17T23:06:22.028Z,4.60
2023-03-17T23:08:49.231Z,4.50
2023-03-17T23:11:21.357Z,4.50
2023-03-17T23:13:49.133Z,4.50
2023-03-17T23:16:16.561Z,4.50
2023-03-17T23:18:46.751Z,4.60
2023-03-17T23:21:32.847Z,4.60
2023-03-17T23:24:00.984Z,4.60
2023-03-17T23:26:28.541Z,4.60
2023-03-17T23:28:55.994Z,4.60
2023-03-17T23:31:23.179Z,4.60
2023-03-17T23:33:50.747Z,4.60
2023-03-17T23:36:18.418Z,4.60
2023-03-17T23:38:46.094Z,4.50
2023-03-17T23:41:14.515Z,4.50
2023-03-17T23:43:42.326Z,4.60
2023-03-17T23:46:09.402Z,4.50
2023-03-17T23:48:36.746Z,4.50
2023-03-17T23:51:04.114Z,4.50
2023-03-17T23:53:31.562Z,4.60
2023-03-17T23:55:59.333Z,4.50
2023-03-17T23:58:27.593Z,4.60
